Time;durP1;ratioP1;P1;durP2;ratioP2;P2;SDS_P1;SDS_P2;PMS_P1;PMS_P2;Temp;Humidity;BMP_temperature;BMP_pressure;BME280_temperature;BME280_humidity;BME280_pressure;Samples;Min_cycle;Max_cycle;Signal;HPM_P1;HPM_P2
2021/04/14 00:01:14;;;;;;;4.75;3.17;;;16.40;47.80;;;;;;6214088;23;20001;-73
2021/04/14 00:03:40;;;;;;;3.60;2.60;;;16.40;47.80;;;;;;6213819;23;19996;-74
2021/04/14 00:06:07;;;;;;;5.45;2.95;;;16.30;47.70;;;;;;6213448;23;20086;-73
2021/04/14 00:08:33;;;;;;;4.10;2.88;;;16.30;47.80;;;;;;6213513;23;20000;-73
2021/04/14 00:10:59;;;;;;;3.05;2.50;;;16.30;47.80;;;;;;6213393;23;20071;-73
2021/04/14 00:13:31;;;;;;;4.32;2.80;;;16.30;47.80;;;;;;6213896;23;20000;-73
2021/04/14 00:15:58;;;;;;;4.07;2.78;;;16.30;47.80;;;;;;6213693;23;20027;-73
2021/04/14 00:18:24;;;;;;;4.43;2.70;;;16.20;47.80;;;;;;6213469;23;20004;-74
2021/04/14 00:20:50;;;;;;;4.68;3.08;;;16.30;47.80;;;;;;6213748;23;20011;-73
2021/04/14 00:23:18;;;;;;;5.88;3.25;;;16.20;47.80;;;;;;6213587;23;20080;-74
2021/04/14 00:25:46;;;;;;;3.90;2.85;;;16.20;47.80;;;;;;6213871;23;20012;-72
2021/04/14 00:28:16;;;;;;;5.32;2.78;;;16.20;47.70;;;;;;6213784;23;20472;-73
2021/04/14 00:30:44;;;;;;;4.30;3.13;;;16.10;47.70;;;;;;6213945;23;20001;-72
2021/04/14 00:33:10;;;;;;;4.38;2.70;;;16.10;47.70;;;;;;6213466;23;20001;-72
2021/04/14 00:35:36;;;;;;;3.45;2.45;;;16.10;47.80;;;;;;6213398;23;20005;-73
2021/04/14 00:38:02;;;;;;;5.25;3.05;;;16.10;47.80;;;;;;6213404;23;20019;-73
2021/04/14 00:40:31;;;;;;;4.13;2.92;;;16.10;47.80;;;;;;6213553;23;20084;-73
2021/04/14 00:42:58;;;;;;;4.82;3.17;;;16.00;47.80;;;;;;6213478;23;20080;-72
2021/04/14 00:45:25;;;;;;;4.68;3.17;;;16.00;47.80;;;;;;6213606;23;20016;-73
2021/04/14 00:47:50;;;;;;;4.40;3.03;;;16.00;47.70;;;;;;6213462;23;19996;-73
2021/04/14 00:50:19;;;;;;;3.63;3.03;;;16.00;47.70;;;;;;6213668;23;20008;-73
2021/04/14 00:52:45;;;;;;;3.92;2.92;;;16.00;47.80;;;;;;6213728;23;20008;-72
2021/04/14 00:55:14;;;;;;;3.75;2.83;;;16.00;47.90;;;;;;6213481;23;20440;-73
2021/04/14 00:57:40;;;;;;;5.05;3.03;;;15.90;47.80;;;;;;6213427;23;20005;-73
2021/04/14 01:00:12;;;;;;;5.88;3.03;;;15.90;47.90;;;;;;6186817;23;20079;-72
2021/04/14 01:02:38;;;;;;;4.53;2.85;;;15.90;47.90;;;;;;6186598;23;20583;-73
2021/04/14 01:05:12;;;;;;;4.63;3.03;;;15.80;47.90;;;;;;6213040;23;20322;-73
2021/04/14 01:07:39;;;;;;;4.43;3.13;;;15.90;47.90;;;;;;6214908;23;20573;-72
2021/04/14 01:10:05;;;;;;;4.18;2.92;;;15.80;47.80;;;;;;6215265;23;20449;-73
2021/04/14 01:12:31;;;;;;;4.82;3.05;;;15.90;47.90;;;;;;6215185;23;20008;-73
2021/04/14 01:14:57;;;;;;;4.53;3.10;;;15.80;47.80;;;;;;6215120;23;20004;-72
2021/04/14 01:17:22;;;;;;;3.75;2.88;;;15.80;47.90;;;;;;6215012;23;20000;-73
2021/04/14 01:19:48;;;;;;;4.97;3.10;;;15.80;48.00;;;;;;6214972;23;20516;-73
2021/04/14 01:22:14;;;;;;;4.00;2.72;;;15.70;47.90;;;;;;6188857;23;20004;-73
2021/04/14 01:24:39;;;;;;;6.53;2.97;;;15.80;47.90;;;;;;6188449;23;20043;-73
2021/04/14 01:27:06;;;;;;;4.40;2.90;;;15.70;47.90;;;;;;6188322;23;20015;-72
2021/04/14 01:29:31;;;;;;;3.92;2.85;;;15.70;47.90;;;;;;6214970;23;20384;-72
2021/04/14 01:31:57;;;;;;;4.45;2.90;;;15.70;47.80;;;;;;6214817;23;20004;-73
2021/04/14 01:34:22;;;;;;;4.75;3.03;;;15.70;47.80;;;;;;6214803;23;20001;-73
2021/04/14 01:36:48;;;;;;;5.22;3.33;;;15.70;47.80;;;;;;6215371;23;20012;-73
2021/04/14 01:39:15;;;;;;;4.68;2.90;;;15.70;47.80;;;;;;6214998;23;19996;-73
2021/04/14 01:41:41;;;;;;;4.38;2.88;;;15.60;47.80;;;;;;6214989;23;20001;-73
2021/04/14 01:44:10;;;;;;;3.95;3.15;;;15.60;47.70;;;;;;6214751;23;20005;-73
2021/04/14 01:46:40;;;;;;;4.43;2.72;;;15.60;47.70;;;;;;6214760;23;20001;-72
2021/04/14 01:49:06;;;;;;;5.75;3.10;;;15.60;47.80;;;;;;6214662;23;19997;-73
2021/04/14 01:51:32;;;;;;;3.63;2.90;;;15.60;47.90;;;;;;6214838;23;20058;-73
2021/04/14 01:53:58;;;;;;;4.32;2.85;;;15.60;47.90;;;;;;6188223;23;20036;-73
2021/04/14 01:56:23;;;;;;;4.60;3.25;;;15.60;47.90;;;;;;6214790;23;20009;-73
2021/04/14 01:58:50;;;;;;;5.20;3.30;;;15.50;47.80;;;;;;6188432;23;20001;-72
2021/04/14 02:01:16;;;;;;;4.82;2.90;;;15.50;47.90;;;;;;6214982;23;20011;-72
2021/04/14 02:03:42;;;;;;;4.75;3.22;;;15.50;47.90;;;;;;6214410;23;20068;-75
2021/04/14 02:06:11;;;;;;;6.22;4.22;;;15.50;47.90;;;;;;6214718;23;20456;-74
2021/04/14 02:08:37;;;;;;;5.72;3.22;;;15.50;47.90;;;;;;6214675;23;20007;-74
2021/04/14 02:11:08;;;;;;;3.92;2.80;;;15.50;47.90;;;;;;6214627;23;20008;-75
2021/04/14 02:13:37;;;;;;;4.63;2.97;;;15.50;47.90;;;;;;6214639;23;20391;-74
2021/04/14 02:16:10;;;;;;;4.28;2.88;;;15.50;47.90;;;;;;6214429;23;20058;-75
2021/04/14 02:18:36;;;;;;;6.25;3.08;;;15.40;47.90;;;;;;6213853;23;20026;-74
2021/04/14 02:21:03;;;;;;;4.13;2.90;;;15.40;47.90;;;;;;6188044;23;20083;-74
2021/04/14 02:23:32;;;;;;;7.55;3.72;;;15.40;47.90;;;;;;6214674;23;19997;-75
2021/04/14 02:26:10;;;;;;;5.47;3.20;;;15.40;47.90;;;;;;6214242;23;20019;-74
2021/04/14 02:28:36;;;;;;;4.93;3.20;;;15.40;47.90;;;;;;6214419;23;20001;-74
2021/04/14 02:31:03;;;;;;;4.40;3.08;;;15.40;47.80;;;;;;6214560;23;20001;-75
2021/04/14 02:33:29;;;;;;;4.50;3.22;;;15.40;47.80;;;;;;6214538;23;20001;-74
2021/04/14 02:35:55;;;;;;;5.35;3.60;;;15.40;47.80;;;;;;6214408;23;20024;-73
2021/04/14 02:38:23;;;;;;;4.30;3.25;;;15.40;47.80;;;;;;6214426;23;20017;-74
2021/04/14 02:40:50;;;;;;;7.32;4.07;;;15.30;47.80;;;;;;6214573;23;20007;-73
2021/04/14 02:43:15;;;;;;;4.68;2.88;;;15.30;47.90;;;;;;6214109;23;20004;-73
2021/04/14 02:45:41;;;;;;;4.82;3.17;;;15.30;47.70;;;;;;6214254;23;20092;-74
2021/04/14 02:48:09;;;;;;;4.85;3.42;;;15.30;47.70;;;;;;6214319;23;20031;-75
2021/04/14 02:50:35;;;;;;;5.10;3.50;;;15.30;47.80;;;;;;6214261;23;20337;-75
2021/04/14 02:53:01;;;;;;;5.07;3.10;;;15.30;47.80;;;;;;6214109;23;20043;-73
2021/04/14 02:55:29;;;;;;;4.30;3.03;;;15.20;47.80;;;;;;6214168;23;20004;-75
2021/04/14 02:57:55;;;;;;;3.85;2.78;;;15.20;47.80;;;;;;6213938;23;19996;-74
2021/04/14 03:00:23;;;;;;;4.88;2.95;;;15.20;47.80;;;;;;6214554;23;20009;-74
2021/04/14 03:02:49;;;;;;;4.90;3.20;;;15.20;47.80;;;;;;6214123;23;20005;-73
2021/04/14 03:05:17;;;;;;;3.88;2.88;;;15.20;47.80;;;;;;6187421;23;20040;-74
2021/04/14 03:07:42;;;;;;;5.32;3.53;;;15.20;47.80;;;;;;6213948;23;20071;-74
2021/04/14 03:10:10;;;;;;;4.80;3.00;;;15.20;47.80;;;;;;6213984;23;20028;-75
2021/04/14 03:12:36;;;;;;;5.20;3.42;;;15.20;47.80;;;;;;6214075;23;20032;-74
2021/04/14 03:15:04;;;;;;;6.53;3.30;;;15.20;47.80;;;;;;6214046;23;20127;-73
2021/04/14 03:17:29;;;;;;;4.38;2.80;;;15.10;47.80;;;;;;6214037;23;19997;-75
2021/04/14 03:19:55;;;;;;;4.28;3.03;;;15.10;47.70;;;;;;6214256;23;20055;-74
2021/04/14 03:22:20;;;;;;;5.45;3.00;;;15.10;47.80;;;;;;6214208;23;20009;-74
2021/04/14 03:24:46;;;;;;;5.45;3.67;;;15.10;47.70;;;;;;6213681;23;20088;-74
2021/04/14 03:27:12;;;;;;;5.32;3.00;;;15.10;47.70;;;;;;6214019;23;20079;-74
2021/04/14 03:29:37;;;;;;;4.32;3.17;;;15.10;47.70;;;;;;6213883;23;20498;-74
2021/04/14 03:32:03;;;;;;;4.25;2.97;;;15.10;48.30;;;;;;6213924;23;20001;-73
2021/04/14 03:34:29;;;;;;;4.45;3.08;;;15.10;47.70;;;;;;6214191;23;20028;-74
2021/04/14 03:36:55;;;;;;;4.47;2.92;;;15.00;47.60;;;;;;6187424;23;20067;-74
2021/04/14 03:39:20;;;;;;;5.22;3.17;;;15.00;47.60;;;;;;6213786;23;20004;-74
2021/04/14 03:41:46;;;;;;;6.07;3.33;;;15.00;47.60;;;;;;6213803;23;20015;-74
2021/04/14 03:44:12;;;;;;;4.80;2.97;;;15.00;47.60;;;;;;6213727;23;20440;-73
2021/04/14 03:46:37;;;;;;;3.92;3.20;;;15.00;47.60;;;;;;6213834;23;20012;-73
2021/04/14 03:49:03;;;;;;;4.30;2.83;;;15.00;47.60;;;;;;6187179;23;20005;-74
2021/04/14 03:51:29;;;;;;;4.68;3.15;;;15.00;47.50;;;;;;6213673;23;20043;-73
2021/04/14 03:53:55;;;;;;;4.22;3.28;;;15.00;47.50;;;;;;6214145;23;20449;-73
2021/04/14 03:56:22;;;;;;;5.35;3.40;;;14.90;47.50;;;;;;6213890;23;20012;-73
2021/04/14 03:58:53;;;;;;;4.55;3.08;;;15.00;47.50;;;;;;6213802;23;20076;-74
2021/04/14 04:01:30;;;;;;;4.40;3.22;;;14.90;47.40;;;;;;6214052;23;20013;-74
2021/04/14 04:03:56;;;;;;;5.45;3.47;;;14.90;47.40;;;;;;6213806;23;20004;-73
2021/04/14 04:06:22;;;;;;;5.00;3.25;;;14.90;47.50;;;;;;6213399;23;20348;-74
2021/04/14 04:08:49;;;;;;;6.22;3.63;;;14.90;47.50;;;;;;6186885;23;20052;-76
2021/04/14 04:11:15;;;;;;;6.10;3.13;;;14.90;47.50;;;;;;6213755;23;20005;-74
2021/04/14 04:13:41;;;;;;;4.80;3.13;;;14.90;47.40;;;;;;6213550;23;20005;-74
2021/04/14 04:16:07;;;;;;;4.22;2.97;;;14.90;47.40;;;;;;6213421;23;20015;-75
2021/04/14 04:18:35;;;;;;;5.20;3.45;;;14.90;47.40;;;;;;6213391;23;20079;-74
2021/04/14 04:21:02;;;;;;;4.00;2.83;;;14.80;47.40;;;;;;6213283;23;20457;-75
2021/04/14 04:23:28;;;;;;;5.55;3.25;;;14.80;47.40;;;;;;6213889;23;20028;-74
2021/04/14 04:25:53;;;;;;;5.05;3.30;;;14.80;47.50;;;;;;6213315;23;20039;-74
2021/04/14 04:28:20;;;;;;;6.95;2.97;;;14.80;47.40;;;;;;6213720;23;20010;-74
2021/04/14 04:30:46;;;;;;;4.93;3.05;;;14.80;47.50;;;;;;6213464;23;20075;-74
2021/04/14 04:33:13;;;;;;;5.65;3.42;;;14.80;47.40;;;;;;6213264;23;20008;-73
2021/04/14 04:35:38;;;;;;;5.25;3.03;;;14.80;47.40;;;;;;6213181;23;20000;-73
2021/04/14 04:38:04;;;;;;;4.22;2.90;;;14.80;47.40;;;;;;6213349;23;20005;-74
2021/04/14 04:40:30;;;;;;;5.10;3.05;;;14.80;47.50;;;;;;6213607;23;20004;-74
2021/04/14 04:42:57;;;;;;;5.40;3.05;;;14.80;47.40;;;;;;6215679;23;19997;-74
2021/04/14 04:45:26;;;;;;;4.38;3.15;;;14.80;47.40;;;;;;6215347;23;20084;-73
2021/04/14 04:47:52;;;;;;;5.47;3.22;;;14.80;47.40;;;;;;6215063;23;20086;-74
2021/04/14 04:50:19;;;;;;;3.97;2.70;;;14.70;47.40;;;;;;6215223;23;20001;-73
2021/04/14 04:52:45;;;;;;;4.85;2.95;;;14.70;47.40;;;;;;6215465;23;20008;-74
2021/04/14 04:55:12;;;;;;;4.85;3.38;;;14.70;47.40;;;;;;6215348;23;20012;-74
2021/04/14 04:57:38;;;;;;;6.30;3.17;;;14.70;47.40;;;;;;6215193;23;20000;-74
2021/04/14 05:00:06;;;;;;;5.38;3.30;;;14.70;47.40;;;;;;6188470;23;20341;-74
2021/04/14 05:02:32;;;;;;;5.10;3.38;;;14.70;47.40;;;;;;6188514;23;20465;-73
2021/04/14 05:04:58;;;;;;;6.53;3.33;;;14.70;47.50;;;;;;6215199;23;20008;-74
2021/04/14 05:07:24;;;;;;;5.75;3.65;;;14.70;47.40;;;;;;6215270;23;20004;-73
2021/04/14 05:09:49;;;;;;;5.25;3.53;;;14.70;47.40;;;;;;6215328;23;20452;-73
2021/04/14 05:12:15;;;;;;;4.05;2.45;;;14.70;47.40;;;;;;6215305;23;19996;-73
2021/04/14 05:14:40;;;;;;;6.55;2.75;;;14.60;47.40;;;;;;6215172;23;20076;-74
2021/04/14 05:17:06;;;;;;;4.55;3.20;;;14.70;47.50;;;;;;6215151;23;20334;-74
2021/04/14 05:19:32;;;;;;;5.43;2.95;;;14.60;47.40;;;;;;6215174;23;20032;-74
2021/04/14 05:21:58;;;;;;;5.28;3.28;;;14.60;47.30;;;;;;6189007;23;20005;-74
2021/04/14 05:24:23;;;;;;;4.30;2.95;;;14.60;47.30;;;;;;6215122;23;20002;-73
2021/04/14 05:26:49;;;;;;;4.22;3.10;;;14.60;47.40;;;;;;6215133;23;20004;-74
2021/04/14 05:29:15;;;;;;;6.32;3.10;;;14.60;47.30;;;;;;6214995;23;20433;-74
2021/04/14 05:31:41;;;;;;;4.45;2.70;;;14.60;47.30;;;;;;6214979;23;20001;-73
2021/04/14 05:34:08;;;;;;;5.57;3.38;;;14.60;47.30;;;;;;6214885;23;20001;-74
2021/04/14 05:36:34;;;;;;;5.38;2.78;;;14.60;47.30;;;;;;6214987;23;20000;-74
2021/04/14 05:39:00;;;;;;;6.22;3.47;;;14.60;47.30;;;;;;6188543;23;20008;-73
2021/04/14 05:41:26;;;;;;;6.55;3.28;;;14.50;47.30;;;;;;6215017;23;20345;-73
2021/04/14 05:43:52;;;;;;;6.00;3.50;;;14.50;47.20;;;;;;6188191;23;20107;-74
2021/04/14 05:46:19;;;;;;;5.75;2.88;;;14.50;47.30;;;;;;6214738;23;20460;-74
2021/04/14 05:48:47;;;;;;;4.80;3.00;;;14.50;47.20;;;;;;6214685;23;20072;-73
2021/04/14 05:51:22;;;;;;;6.05;2.90;;;14.50;47.20;;;;;;6215005;23;20000;-73
2021/04/14 05:53:49;;;;;;;7.10;3.33;;;14.50;47.20;;;;;;6214731;23;19997;-73
2021/04/14 05:56:15;;;;;;;6.20;3.38;;;14.50;47.20;;;;;;6214547;23;20001;-72
2021/04/14 05:58:42;;;;;;;5.43;3.13;;;14.50;47.20;;;;;;6214732;23;20005;-71
2021/04/14 06:01:10;;;;;;;5.38;3.15;;;14.50;47.20;;;;;;6214655;23;20005;-74
2021/04/14 06:03:35;;;;;;;8.35;3.40;;;14.50;47.30;;;;;;6214818;23;20036;-74
2021/04/14 06:06:01;;;;;;;6.47;3.17;;;14.40;47.20;;;;;;6215042;23;20019;-73
2021/04/14 06:08:28;;;;;;;5.43;3.45;;;14.50;47.20;;;;;;6214780;23;19997;-73
2021/04/14 06:10:54;;;;;;;5.60;3.20;;;14.50;47.10;;;;;;6214555;23;20001;-74
2021/04/14 06:13:20;;;;;;;4.93;3.05;;;14.50;47.10;;;;;;6214609;23;20384;-73
2021/04/14 06:15:45;;;;;;;6.97;3.55;;;14.70;46.90;;;;;;6214491;23;20001;-73
2021/04/14 06:18:11;;;;;;;6.80;3.15;;;15.00;46.40;;;;;;6188035;23;20087;-73
2021/04/14 06:20:38;;;;;;;5.18;2.92;;;15.20;46.00;;;;;;6214605;23;20438;-73
2021/04/14 06:23:07;;;;;;;4.72;2.90;;;15.50;45.60;;;;;;6214978;23;20456;-73
2021/04/14 06:25:40;;;;;;;6.45;3.05;;;15.60;45.60;;;;;;6214756;23;20013;-74
2021/04/14 06:28:07;;;;;;;4.30;2.60;;;15.70;45.90;;;;;;6214624;23;20012;-74
2021/04/14 06:30:34;;;;;;;4.85;2.72;;;15.70;46.30;;;;;;6214828;23;20004;-72
2021/04/14 06:33:02;;;;;;;7.15;3.10;;;15.80;46.70;;;;;;6203720;23;20004;-73
2021/04/14 06:35:28;;;;;;;6.22;2.78;;;15.90;47.00;;;;;;6212796;23;20001;-73
2021/04/14 06:37:54;;;;;;;9.48;2.90;;;16.00;47.70;;;;;;6213495;23;20353;-73
2021/04/14 06:43:42;;;;;;;5.65;2.67;;;16.20;47.80;;;;;;6213862;23;20018;-73
2021/04/14 06:46:26;;;;;;;7.57;2.95;;;16.40;48.00;;;;;;6213544;23;20027;-74
2021/04/14 06:49:00;;;;;;;4.47;2.78;;;16.50;48.20;;;;;;6213719;23;20360;-73
2021/04/14 06:51:49;;;;;;;7.72;2.75;;;16.60;48.30;;;;;;6213247;23;20019;-73
2021/04/14 06:54:50;;;;;;;5.75;2.80;;;16.70;49.00;;;;;;6213531;23;20003;-73
2021/04/14 06:57:17;;;;;;;10.40;3.78;;;16.80;48.60;;;;;;6174941;23;20497;-78
2021/04/14 06:59:51;;;;;;;5.60;3.58;;;16.80;47.60;;;;;;6213337;23;20067;-77
2021/04/14 07:02:23;;;;;;;10.68;3.53;;;16.80;47.30;;;;;;6213267;23;19997;-78
2021/04/14 07:05:02;;;;;;;10.55;3.53;;;16.90;47.50;;;;;;6213090;23;20047;-77
2021/04/14 07:07:32;;;;;;;7.95;3.20;;;16.90;47.40;;;;;;6213413;23;20007;-79
2021/04/14 07:10:16;;;;;;;7.53;3.35;;;17.00;47.30;;;;;;6213296;23;20432;-74
2021/04/14 07:12:42;;;;;;;7.78;3.33;;;17.00;47.30;;;;;;6212969;23;20036;-77
2021/04/14 07:15:08;;;;;;;8.20;3.25;;;17.10;47.20;;;;;;6209914;23;20001;-74
2021/04/14 07:17:57;;;;;;;8.82;3.38;;;17.10;47.10;;;;;;6211762;23;20007;-76
2021/04/14 07:20:27;;;;;;;6.82;3.33;;;17.10;47.00;;;;;;6212352;23;20438;-77
2021/04/14 07:22:57;;;;;;;7.00;3.47;;;17.20;47.10;;;;;;6213432;23;19997;-75
2021/04/14 07:25:29;;;;;;;8.43;3.15;;;17.20;46.90;;;;;;6213799;23;20095;-76
2021/04/14 07:28:12;;;;;;;4.82;3.10;;;17.20;46.90;;;;;;6212892;23;20008;-75
2021/04/14 07:30:45;;;;;;;6.43;3.05;;;17.20;46.70;;;;;;6213769;23;20004;-78
2021/04/14 07:33:30;;;;;;;4.97;3.17;;;17.20;46.50;;;;;;6214078;23;20062;-75
2021/04/14 07:36:10;;;;;;;7.38;3.28;;;17.20;46.60;;;;;;6187154;23;20001;-77
2021/04/14 07:39:20;;;;;;;9.85;3.67;;;17.20;46.70;;;;;;6212715;23;20504;-76
2021/04/14 07:42:08;;;;;;;6.53;3.13;;;17.20;46.70;;;;;;6067466;23;20030;-75
2021/04/14 07:44:40;;;;;;;7.05;3.10;;;17.20;46.70;;;;;;6205975;23;20011;-77
2021/04/14 07:47:09;;;;;;;6.10;3.28;;;17.20;46.60;;;;;;6212817;23;20004;-77
2021/04/14 07:49:35;;;;;;;4.65;3.05;;;17.20;46.50;;;;;;6212727;23;20007;-77
2021/04/14 07:52:02;;;;;;;5.18;3.35;;;17.20;46.40;;;;;;6212728;23;20004;-77
2021/04/14 07:54:41;;;;;;;4.93;3.45;;;17.20;46.20;;;;;;6212565;23;20004;-75
2021/04/14 07:57:08;;;;;;;6.45;3.17;;;17.30;46.20;;;;;;6213008;23;20003;-78
2021/04/14 07:59:40;;;;;;;8.27;3.45;;;17.20;45.90;;;;;;6212462;23;20005;-78
2021/04/14 08:02:25;;;;;;;7.25;3.60;;;17.30;45.80;;;;;;6212508;23;20000;-78
2021/04/14 08:04:52;;;;;;;5.50;2.92;;;17.20;45.60;;;;;;6212546;23;20004;-79
2021/04/14 08:07:23;;;;;;;4.63;2.40;;;17.20;45.50;;;;;;6212463;23;20008;-75
2021/04/14 08:09:57;;;;;;;4.97;2.63;;;17.20;45.70;;;;;;6212547;23;20000;-78
2021/04/14 08:12:39;;;;;;;5.35;2.90;;;17.20;45.60;;;;;;6185621;23;20433;-78
2021/04/14 08:15:24;;;;;;;4.32;2.95;;;17.10;45.50;;;;;;6212306;23;20005;-77
2021/04/14 08:17:50;;;;;;;8.15;3.15;;;17.20;45.70;;;;;;6185362;23;20397;-74
2021/04/14 08:20:29;;;;;;;6.40;2.72;;;17.10;45.60;;;;;;6212260;23;20005;-76
2021/04/14 08:23:11;;;;;;;5.18;2.90;;;17.10;45.50;;;;;;6212163;23;20028;-77
2021/04/14 08:25:42;;;;;;;5.20;3.05;;;17.10;45.50;;;;;;6185849;23;20012;-75
2021/04/14 08:28:07;;;;;;;6.82;2.63;;;17.10;45.50;;;;;;6212795;23;20008;-74
2021/04/14 08:30:33;;;;;;;4.43;2.95;;;17.00;45.50;;;;;;6211965;23;20009;-74
2021/04/14 08:33:03;;;;;;;4.45;3.00;;;17.00;45.50;;;;;;6212217;23;19997;-77
2021/04/14 08:35:40;;;;;;;4.85;3.00;;;17.00;45.50;;;;;;6212008;23;20501;-78
2021/04/14 08:38:07;;;;;;;4.35;2.92;;;17.00;45.50;;;;;;6186757;23;601223;-79
2021/04/14 08:40:55;;;;;;;6.25;3.10;;;17.00;45.60;;;;;;6186580;23;20009;-77
2021/04/14 08:43:28;;;;;;;4.60;2.83;;;17.00;45.60;;;;;;6212950;23;20004;-78
2021/04/14 08:45:54;;;;;;;4.10;2.75;;;16.90;45.60;;;;;;6213204;23;20058;-76
2021/04/14 08:48:26;;;;;;;4.32;2.53;;;16.90;45.60;;;;;;6213124;23;20068;-76
2021/04/14 08:50:56;;;;;;;5.90;3.15;;;16.90;45.60;;;;;;6213592;23;20004;-75
2021/04/14 08:53:31;;;;;;;5.20;3.50;;;16.90;45.70;;;;;;6213456;23;20348;-75
2021/04/14 08:55:57;;;;;;;6.47;3.40;;;16.90;45.70;;;;;;6212769;23;20004;-77
2021/04/14 08:58:24;;;;;;;3.70;2.47;;;16.90;45.70;;;;;;6213060;23;20055;-79
2021/04/14 09:00:49;;;;;;;5.57;2.63;;;16.90;45.80;;;;;;6213438;23;20315;-78
2021/04/14 09:03:20;;;;;;;5.60;3.10;;;16.90;45.80;;;;;;6213397;23;20050;-78
2021/04/14 09:05:46;;;;;;;4.72;3.17;;;16.90;45.70;;;;;;6213227;23;20020;-78
2021/04/14 09:08:21;;;;;;;5.70;3.20;;;16.90;45.70;;;;;;6213473;23;20000;-78
2021/04/14 09:13:56;;;;;;;5.38;3.22;;;16.90;45.70;;;;;;6213486;23;20001;-79
2021/04/14 09:16:47;;;;;;;5.68;3.20;;;16.90;45.70;;;;;;6213482;23;20345;-77
2021/04/14 09:19:23;;;;;;;5.95;3.10;;;16.90;45.60;;;;;;6212760;23;20007;-75
2021/04/14 09:21:51;;;;;;;;;;;16.90;45.60;;;;;;6214017;23;20088;-77
2021/04/14 09:24:33;;;;;;;5.32;3.22;;;16.90;45.60;;;;;;6213116;23;19907;-77
2021/04/14 09:27:00;;;;;;;5.00;3.22;;;16.80;45.60;;;;;;6213471;23;20012;-77
2021/04/14 09:29:47;;;;;;;8.00;3.42;;;16.80;45.70;;;;;;6188136;23;20000;-74
2021/04/14 09:32:15;;;;;;;5.70;3.17;;;16.80;45.90;;;;;;6215735;23;20408;-75
2021/04/14 09:34:47;;;;;;;6.35;4.00;;;16.70;46.00;;;;;;6215391;23;20001;-74
2021/04/14 09:37:13;;;;;;;5.22;2.97;;;16.70;46.00;;;;;;6215060;23;20009;-73
2021/04/14 09:39:44;;;;;;;4.97;3.03;;;16.70;46.00;;;;;;6214396;23;20022;-76
2021/04/14 09:42:22;;;;;;;5.25;3.70;;;16.70;46.00;;;;;;6214889;23;20000;-75
2021/04/14 09:44:51;;;;;;;5.30;3.30;;;16.70;46.00;;;;;;6187258;23;20012;-76
2021/04/14 09:47:25;;;;;;;6.97;3.08;;;16.70;46.00;;;;;;6215157;23;20012;-75
2021/04/14 09:49:53;;;;;;;5.20;2.97;;;16.70;46.10;;;;;;6213183;23;19997;-73
2021/04/14 09:52:24;;;;;;;5.43;3.40;;;16.70;46.10;;;;;;6212923;23;20076;-74
2021/04/14 09:54:55;;;;;;;6.20;3.50;;;16.70;46.10;;;;;;6186300;23;20087;-77
2021/04/14 09:57:28;;;;;;;6.63;3.28;;;16.70;46.10;;;;;;6214158;23;20080;-73
2021/04/14 09:59:55;;;;;;;4.85;3.47;;;16.70;46.10;;;;;;6214515;23;20066;-76
2021/04/14 10:02:22;;;;;;;6.13;3.15;;;16.70;46.10;;;;;;6213862;23;20322;-76
2021/04/14 10:04:49;;;;;;;7.47;3.70;;;16.70;46.10;;;;;;6214130;23;20062;-75
2021/04/14 10:07:31;;;;;;;5.13;2.95;;;16.70;46.20;;;;;;6214754;23;19997;-76
2021/04/14 10:10:21;;;;;;;5.63;3.65;;;16.60;46.20;;;;;;6215132;23;20012;-75
2021/04/14 10:12:48;;;;;;;4.22;2.88;;;16.60;46.30;;;;;;6199719;23;20000;-75
2021/04/14 10:15:15;;;;;;;5.72;3.42;;;16.60;46.40;;;;;;6214679;23;20353;-75
2021/04/14 10:17:41;;;;;;;4.38;2.70;;;16.60;46.40;;;;;;6214409;23;20008;-74
2021/04/14 10:20:21;;;;;;;5.05;2.85;;;16.70;46.50;;;;;;6214482;23;20008;-74
2021/04/14 10:22:49;;;;;;;6.05;3.17;;;16.80;46.50;;;;;;6214861;23;20312;-74
2021/04/14 10:25:34;;;;;;;4.35;2.30;;;16.90;46.40;;;;;;6214735;23;20013;-76
2021/04/14 10:28:05;;;;;;;4.67;2.40;;;17.00;46.30;;;;;;6187238;23;20012;-74
2021/04/14 10:30:36;;;;;;;4.10;2.13;;;17.20;46.20;;;;;;6187189;23;20000;-74
2021/04/14 10:33:08;;;;;;;5.03;2.10;;;17.30;46.00;;;;;;6213949;23;20087;-75
2021/04/14 10:35:34;;;;;;;5.32;2.35;;;17.40;46.10;;;;;;6214477;23;20012;-73
2021/04/14 10:38:01;;;;;;;6.40;2.88;;;17.40;46.20;;;;;;6214261;23;20083;-73
2021/04/14 10:40:29;;;;;;;5.72;2.70;;;17.50;46.50;;;;;;6214081;23;20012;-73
2021/04/14 10:42:56;;;;;;;7.57;2.17;;;17.60;46.50;;;;;;6214389;23;20342;-72
2021/04/14 10:45:23;;;;;;;5.35;2.35;;;17.70;46.60;;;;;;6214390;23;20074;-73
2021/04/14 10:47:54;;;;;;;4.60;2.63;;;17.80;46.80;;;;;;6214499;23;20408;-76
2021/04/14 10:50:27;;;;;;;3.63;2.15;;;17.90;46.80;;;;;;6214301;23;20500;-73
2021/04/14 10:53:03;;;;;;;4.90;2.28;;;18.00;46.60;;;;;;6214133;23;20005;-73
2021/04/14 10:55:48;;;;;;;5.07;2.20;;;18.10;46.60;;;;;;6213083;23;20001;-79
2021/04/14 10:58:20;;;;;;;3.63;2.10;;;18.20;46.30;;;;;;6213438;23;20077;-78
2021/04/14 11:00:48;;;;;;;4.72;2.47;;;18.30;46.40;;;;;;6213426;23;20000;-77
2021/04/14 11:03:20;;;;;;;5.35;2.92;;;18.50;46.50;;;;;;6213073;23;20075;-79
2021/04/14 11:05:50;;;;;;;6.22;2.25;;;18.70;46.60;;;;;;6186526;23;20063;-77
2021/04/14 11:08:16;;;;;;;5.28;2.20;;;18.90;46.60;;;;;;6186879;23;20001;-77
2021/04/14 11:10:44;;;;;;;4.65;2.50;;;19.20;46.40;;;;;;6212824;23;20080;-78
2021/04/14 11:13:18;;;;;;;5.45;2.13;;;19.50;46.20;;;;;;6213345;23;20011;-79
2021/04/14 11:15:46;;;;;;;3.05;1.50;;;19.70;46.00;;;;;;6213578;23;20004;-73
2021/04/14 11:18:14;;;;;;;3.47;1.58;;;19.90;45.90;;;;;;6214196;23;20009;-74
2021/04/14 11:20:53;;;;;;;2.85;1.60;;;20.10;46.90;;;;;;6213807;23;20009;-74
2021/04/14 11:23:23;;;;;;;3.83;1.67;;;20.30;47.00;;;;;;6214014;23;20000;-76
2021/04/14 11:25:49;;;;;;;2.78;1.65;;;20.50;46.50;;;;;;6213844;23;20008;-75
2021/04/14 11:28:19;;;;;;;5.30;1.95;;;20.70;46.30;;;;;;6213216;23;20001;-76
2021/04/14 11:30:55;;;;;;;4.25;1.80;;;20.80;46.00;;;;;;6214164;23;20082;-75
2021/04/14 11:33:33;;;;;;;;;;;20.90;45.80;;;;;;6214516;23;20001;-74
2021/04/14 11:35:59;;;;;;;3.30;1.92;;;21.00;45.40;;;;;;6213755;23;19931;-76
2021/04/14 11:38:29;;;;;;;3.85;1.95;;;21.10;45.30;;;;;;6213381;23;20019;-76
2021/04/14 11:40:57;;;;;;;5.95;2.03;;;21.20;45.10;;;;;;6213597;23;20091;-74
2021/04/14 11:43:29;;;;;;;3.50;1.65;;;21.30;45.10;;;;;;6214144;23;20127;-74
2021/04/14 11:45:57;;;;;;;3.53;1.60;;;21.40;44.70;;;;;;6213830;23;20457;-74
2021/04/14 11:49:00;;;;;;;3.13;1.40;;;21.40;44.30;;;;;;6213650;23;19997;-73
2021/04/14 11:51:45;;;;;;;2.30;1.40;;;21.30;44.30;;;;;;6151819;23;20005;-74
2021/04/14 11:54:16;;;;;;;4.25;1.65;;;21.30;44.40;;;;;;6213526;23;20478;-74
2021/04/14 11:56:54;;;;;;;3.17;1.60;;;21.20;44.80;;;;;;6213185;23;20004;-75
2021/04/14 11:59:28;;;;;;;3.53;1.55;;;21.10;44.50;;;;;;6213490;23;20007;-75
2021/04/14 12:02:03;;;;;;;2.35;1.40;;;20.90;44.40;;;;;;6187160;23;20009;-75
2021/04/14 12:04:31;;;;;;;3.58;1.55;;;20.70;44.50;;;;;;6213610;23;20001;-75
2021/04/14 12:06:57;;;;;;;3.30;1.63;;;20.60;44.50;;;;;;6213222;23;20009;-74
2021/04/14 12:09:22;;;;;;;2.78;1.67;;;20.50;44.50;;;;;;6213444;23;19997;-76
2021/04/14 12:12:06;;;;;;;3.28;1.67;;;20.30;44.30;;;;;;6213857;23;20004;-75
2021/04/14 12:14:33;;;;;;;5.28;1.55;;;20.20;44.40;;;;;;6213709;23;20438;-76
2021/04/14 12:16:59;;;;;;;5.32;1.73;;;20.10;44.40;;;;;;6213445;23;20012;-76
2021/04/14 12:19:25;;;;;;;5.45;1.92;;;20.10;44.50;;;;;;6213216;23;20028;-76
2021/04/14 12:21:52;;;;;;;3.47;1.42;;;20.10;44.20;;;;;;6213835;23;20357;-76
2021/04/14 12:24:19;;;;;;;2.85;1.90;;;20.20;44.10;;;;;;6213667;23;20024;-76
2021/04/14 12:26:45;;;;;;;2.85;1.05;;;20.20;44.00;;;;;;6213329;23;20009;-76
2021/04/14 12:29:11;;;;;;;3.25;1.30;;;20.30;43.70;;;;;;6213354;23;20076;-76
2021/04/14 12:31:37;;;;;;;3.47;1.40;;;20.40;43.50;;;;;;6213462;23;20032;-75
2021/04/14 12:34:06;;;;;;;2.72;1.30;;;20.40;43.30;;;;;;6213346;23;20042;-76
2021/04/14 12:36:32;;;;;;;3.88;1.38;;;20.40;43.10;;;;;;6213186;23;20027;-76
2021/04/14 12:38:58;;;;;;;2.55;1.17;;;20.40;43.00;;;;;;6186640;23;20341;-76
2021/04/14 12:41:24;;;;;;;2.63;1.33;;;20.40;43.00;;;;;;6186981;23;20000;-77
2021/04/14 12:43:49;;;;;;;2.85;1.17;;;20.30;42.90;;;;;;6214007;23;20014;-76
2021/04/14 12:46:15;;;;;;;2.97;1.73;;;20.30;43.00;;;;;;6186630;23;20017;-76
2021/04/14 12:48:45;;;;;;;2.67;1.33;;;20.20;43.00;;;;;;6213462;23;19997;-76
2021/04/14 12:51:35;;;;;;;3.95;1.25;;;20.10;43.20;;;;;;6186523;23;20004;-74
2021/04/14 12:54:18;;;;;;;2.58;1.13;;;19.90;43.30;;;;;;6213606;23;20028;-74
2021/04/14 12:56:53;;;;;;;2.72;1.23;;;19.80;43.40;;;;;;6213430;23;20067;-75
2021/04/14 12:59:32;;;;;;;2.47;0.82;;;19.70;44.10;;;;;;6213458;23;20028;-73
2021/04/14 13:02:09;;;;;;;3.35;1.17;;;19.70;43.50;;;;;;6213594;23;20345;-74
2021/04/14 13:04:37;;;;;;;3.28;1.75;;;19.60;43.60;;;;;;6215367;23;20115;-75
2021/04/14 13:07:08;;;;;;;4.80;1.05;;;19.60;43.50;;;;;;6215228;23;20008;-76